Union City, Pennsylvania
Current Conditions -  °F | °C
As of 4:51 PM on Saturday 20 Dec 2014 (Local Time) from KERI Reporting Station
Overcast Overcast  
Wind Chill: 30°   Ceiling: 2400
Heat Index: 30°   Visibility: 10mi
Dew Point: 20°   Wind: 3mph
Humidity: 66%   Direction: 200°SSW
Pressure: 30.27"   Gusts: NA
Location:  41.9°N, 79.85°W
Report Text: KERI 202151Z 20003KT 10SM OVC024 M01/M07 A3027 RMK AO2 SLP259 T10111067
Loading
Personal Weather Stations






























Interactive Weather Map New forecast layout! Learn more

10-Day Weather Forecast

Advertisements
Track Severe Weather on mobile